createdAt,value
2022-12-23T03:59:39.951Z,997.03
2022-12-23T04:00:39.893Z,997.03
2022-12-23T04:01:39.993Z,997.08
2022-12-23T04:02:40.136Z,997.06
2022-12-23T04:03:39.900Z,997.06
2022-12-23T04:04:39.859Z,997.05
2022-12-23T04:05:39.875Z,997.02
2022-12-23T04:06:39.855Z,997.08
2022-12-23T04:07:39.855Z,997.07
2022-12-23T04:08:39.871Z,997.11
2022-12-23T04:09:39.833Z,997.08
2022-12-23T04:10:39.848Z,997.12
2022-12-23T04:11:39.819Z,997.15
2022-12-23T04:12:39.822Z,997.18
2022-12-23T04:13:39.815Z,997.18
2022-12-23T04:14:39.796Z,997.20
2022-12-23T04:15:39.931Z,997.24
2022-12-23T04:16:39.896Z,997.27
2022-12-23T04:17:39.789Z,997.23
2022-12-23T04:18:39.793Z,997.22
2022-12-23T04:19:39.781Z,997.23
2022-12-23T04:20:39.805Z,997.22
2022-12-23T04:21:39.783Z,997.22
2022-12-23T04:22:39.782Z,997.23
2022-12-23T04:23:39.765Z,997.18
2022-12-23T04:24:39.770Z,997.18
2022-12-23T04:25:39.779Z,997.22
2022-12-23T04:26:39.765Z,997.22
2022-12-23T04:27:39.746Z,997.23
2022-12-23T04:28:39.751Z,997.26
2022-12-23T04:29:39.769Z,997.26
2022-12-23T04:30:39.739Z,997.27
2022-12-23T04:31:39.786Z,997.26
2022-12-23T04:32:39.741Z,997.27
2022-12-23T04:33:39.732Z,997.29
2022-12-23T04:34:39.763Z,997.31
2022-12-23T04:35:39.811Z,997.29
2022-12-23T04:36:39.707Z,997.27
2022-12-23T04:37:39.699Z,997.30
2022-12-23T04:38:39.706Z,997.32
2022-12-23T04:39:39.726Z,997.37
2022-12-23T04:40:39.711Z,997.35
2022-12-23T04:41:39.683Z,997.32
2022-12-23T04:42:39.691Z,997.38
2022-12-23T04:43:39.693Z,997.36
2022-12-23T04:44:39.688Z,997.40
2022-12-23T04:45:39.683Z,997.40
2022-12-23T04:46:39.814Z,997.43
2022-12-23T04:47:39.701Z,997.43
2022-12-23T04:48:39.667Z,997.44
2022-12-23T04:49:39.667Z,997.44
2022-12-23T04:50:39.665Z,997.45
2022-12-23T04:51:39.658Z,997.43
2022-12-23T04:52:39.669Z,997.42
2022-12-23T04:53:39.672Z,997.46
2022-12-23T04:54:45.771Z,997.45
2022-12-23T04:55:39.644Z,997.45
2022-12-23T04:56:39.637Z,997.48
2022-12-23T04:57:39.661Z,997.52
2022-12-23T04:58:39.624Z,997.58
2022-12-23T04:59:39.644Z,997.54
2022-12-23T05:00:40.144Z,997.58
2022-12-23T05:01:39.867Z,997.61
2022-12-23T05:02:39.749Z,997.60
2022-12-23T05:03:39.620Z,997.61
2022-12-23T05:04:39.631Z,997.65
2022-12-23T05:05:39.611Z,997.65
2022-12-23T05:06:39.598Z,997.63
2022-12-23T05:07:39.616Z,997.61
2022-12-23T05:08:39.613Z,997.58
2022-12-23T05:09:39.635Z,997.58
2022-12-23T05:10:39.582Z,997.61
2022-12-23T05:11:42.314Z,997.61
2022-12-23T05:12:39.580Z,997.66
2022-12-23T05:13:39.578Z,997.67
2022-12-23T05:14:39.590Z,997.67
2022-12-23T05:15:39.575Z,997.67
2022-12-23T05:16:39.610Z,997.72
2022-12-23T05:17:39.569Z,997.74
2022-12-23T05:18:39.578Z,997.77
2022-12-23T05:19:39.566Z,997.78
2022-12-23T05:20:39.562Z,997.83
2022-12-23T05:21:39.568Z,997.84
2022-12-23T05:22:39.559Z,997.85
2022-12-23T05:23:39.531Z,997.86
2022-12-23T05:24:39.563Z,997.86
2022-12-23T05:25:39.531Z,997.85
2022-12-23T05:26:39.526Z,997.83
2022-12-23T05:27:39.553Z,997.83
2022-12-23T05:28:39.514Z,997.85
2022-12-23T05:29:39.516Z,997.91
2022-12-23T05:30:39.517Z,997.89
2022-12-23T05:31:39.528Z,997.96
2022-12-23T05:32:39.526Z,997.98
2022-12-23T05:33:39.543Z,997.98
2022-12-23T05:34:39.512Z,997.96
2022-12-23T05:35:39.566Z,997.94
2022-12-23T05:36:39.485Z,997.99
2022-12-23T05:37:39.505Z,997.97
2022-12-23T05:38:39.509Z,997.94
2022-12-23T05:39:39.487Z,997.94
2022-12-23T05:40:39.471Z,997.93
2022-12-23T05:41:39.476Z,997.94
2022-12-23T05:42:39.491Z,997.94
2022-12-23T05:43:39.477Z,997.96
2022-12-23T05:44:39.459Z,997.97
2022-12-23T05:45:39.562Z,997.98
2022-12-23T05:46:39.514Z,997.97
2022-12-23T05:47:39.453Z,997.98
2022-12-23T05:48:39.440Z,997.98
2022-12-23T05:49:39.452Z,997.99
2022-12-23T05:50:39.443Z,998.00
2022-12-23T05:51:39.456Z,997.99
2022-12-23T05:52:39.442Z,998.03
2022-12-23T05:53:39.431Z,998.02
2022-12-23T05:54:39.443Z,998.04
2022-12-23T05:55:39.433Z,998.05
2022-12-23T05:56:39.424Z,998.06
2022-12-23T05:57:39.409Z,998.05
2022-12-23T05:58:39.424Z,998.10
2022-12-23T05:59:39.409Z,998.09
2022-12-23T06:00:39.410Z,998.08
2022-12-23T06:01:39.526Z,998.13
2022-12-23T06:02:39.585Z,998.11
2022-12-23T06:03:39.545Z,998.09
2022-12-23T06:04:39.421Z,998.12
2022-12-23T06:05:39.428Z,998.09
2022-12-23T06:06:39.393Z,998.11
2022-12-23T06:07:39.390Z,998.14
2022-12-23T06:08:39.402Z,998.14
2022-12-23T06:09:39.388Z,998.18
2022-12-23T06:10:39.423Z,998.21
2022-12-23T06:11:39.368Z,998.20
2022-12-23T06:12:39.359Z,998.19
2022-12-23T06:13:39.366Z,998.22
2022-12-23T06:14:39.352Z,998.25
2022-12-23T06:15:39.384Z,998.25
2022-12-23T06:16:39.405Z,998.28
2022-12-23T06:17:39.332Z,998.27
2022-12-23T06:18:39.333Z,998.21
2022-12-23T06:19:39.374Z,998.20
2022-12-23T06:20:39.390Z,998.17
2022-12-23T06:21:39.336Z,998.20
2022-12-23T06:22:39.328Z,998.24
2022-12-23T06:23:39.350Z,998.26
2022-12-23T06:24:39.339Z,998.23
2022-12-23T06:25:39.318Z,998.30
2022-12-23T06:26:39.311Z,998.35
2022-12-23T06:27:39.311Z,998.37
2022-12-23T06:28:39.305Z,998.39
2022-12-23T06:29:39.296Z,998.38
2022-12-23T06:30:39.299Z,998.38
2022-12-23T06:31:39.345Z,998.37
2022-12-23T06:32:39.285Z,998.37
2022-12-23T06:33:39.327Z,998.39
2022-12-23T06:34:39.309Z,998.40
2022-12-23T06:35:39.295Z,998.41
2022-12-23T06:36:39.279Z,998.44
2022-12-23T06:37:39.274Z,998.44
2022-12-23T06:38:39.263Z,998.43
2022-12-23T06:39:39.417Z,998.44
2022-12-23T06:40:39.253Z,998.42
2022-12-23T06:41:39.272Z,998.46
2022-12-23T06:42:39.256Z,998.46
2022-12-23T06:43:39.297Z,998.47
2022-12-23T06:44:39.261Z,998.51
2022-12-23T06:45:39.299Z,998.50
2022-12-23T06:46:39.244Z,998.55
2022-12-23T06:47:39.241Z,998.58
2022-12-23T06:48:39.247Z,998.58
2022-12-23T06:49:39.244Z,998.61
2022-12-23T06:50:39.233Z,998.62
2022-12-23T06:51:39.263Z,998.61
2022-12-23T06:52:39.213Z,998.57
2022-12-23T06:53:39.208Z,998.65
2022-12-23T06:54:39.254Z,998.65
2022-12-23T06:55:39.224Z,998.66
2022-12-23T06:56:39.198Z,998.66
2022-12-23T06:57:39.199Z,998.68
2022-12-23T06:58:39.197Z,998.68
2022-12-23T06:59:39.539Z,998.69
2022-12-23T07:00:39.199Z,998.69
2022-12-23T07:01:39.275Z,998.71
2022-12-23T07:02:39.345Z,998.71
2022-12-23T07:03:39.281Z,998.72
2022-12-23T07:04:39.185Z,998.71
2022-12-23T07:05:39.178Z,998.77
2022-12-23T07:06:39.165Z,998.82
2022-12-23T07:07:39.156Z,998.84
2022-12-23T07:08:39.162Z,998.87
2022-12-23T07:09:39.152Z,998.84
2022-12-23T07:10:39.166Z,998.86
2022-12-23T07:11:39.206Z,998.87
2022-12-23T07:12:39.145Z,998.94
2022-12-23T07:13:39.151Z,998.93
2022-12-23T07:14:39.158Z,998.94
2022-12-23T07:15:39.148Z,998.98
2022-12-23T07:16:39.176Z,999.00
2022-12-23T07:17:39.123Z,998.98
2022-12-23T07:18:39.130Z,998.98
2022-12-23T07:19:39.129Z,999.01
2022-12-23T07:20:39.114Z,999.01
2022-12-23T07:21:39.133Z,998.98
2022-12-23T07:22:39.107Z,998.99
2022-12-23T07:23:39.122Z,998.96
2022-12-23T07:24:39.104Z,999.00
2022-12-23T07:25:39.109Z,999.03
2022-12-23T07:26:39.093Z,999.01
2022-12-23T07:27:39.106Z,999.02
2022-12-23T07:28:39.084Z,999.02
2022-12-23T07:29:39.079Z,999.05
2022-12-23T07:30:39.089Z,999.11
2022-12-23T07:31:41.156Z,999.09
2022-12-23T07:32:39.062Z,999.11
2022-12-23T07:33:39.058Z,999.08
2022-12-23T07:34:39.117Z,999.06
2022-12-23T07:35:39.077Z,999.07
2022-12-23T07:36:39.048Z,999.05
2022-12-23T07:37:39.062Z,999.06
2022-12-23T07:38:39.048Z,999.06
2022-12-23T07:39:39.047Z,999.08
2022-12-23T07:40:39.112Z,999.08
2022-12-23T07:41:39.053Z,999.08
2022-12-23T07:42:47.102Z,999.11
2022-12-23T07:43:39.056Z,999.09
2022-12-23T07:44:39.024Z,999.06
2022-12-23T07:45:39.094Z,999.09
2022-12-23T07:46:39.075Z,999.13
2022-12-23T07:47:39.016Z,999.11
2022-12-23T07:48:39.013Z,999.16
2022-12-23T07:49:39.009Z,999.16
2022-12-23T07:50:39.008Z,999.19
2022-12-23T07:51:39.014Z,999.17
2022-12-23T07:52:39.069Z,999.16
2022-12-23T07:53:38.995Z,999.21
2022-12-23T07:54:38.991Z,999.19
2022-12-23T07:55:38.993Z,999.14
2022-12-23T07:56:39.013Z,999.15
2022-12-23T07:57:38.982Z,999.16
2022-12-23T07:58:38.988Z,999.16
2022-12-23T07:59:38.986Z,999.14
2022-12-23T08:00:38.973Z,999.14
2022-12-23T08:01:39.104Z,999.14
2022-12-23T08:02:39.261Z,999.14
2022-12-23T08:03:39.127Z,999.11
2022-12-23T08:04:45.594Z,999.14
2022-12-23T08:05:38.955Z,999.13
2022-12-23T08:06:38.968Z,999.17
2022-12-23T08:07:38.962Z,999.21
2022-12-23T08:08:38.939Z,999.25
2022-12-23T08:09:38.959Z,999.29
2022-12-23T08:10:42.865Z,999.29
2022-12-23T08:11:38.929Z,999.31
2022-12-23T08:12:38.944Z,999.33
2022-12-23T08:13:38.936Z,999.30
2022-12-23T08:14:38.946Z,999.30
2022-12-23T08:15:38.943Z,999.35
2022-12-23T08:16:43.616Z,999.36
2022-12-23T08:17:38.907Z,999.41
2022-12-23T08:18:38.936Z,999.45
2022-12-23T08:19:38.908Z,999.48
2022-12-23T08:20:38.900Z,999.50
2022-12-23T08:21:38.926Z,999.50
2022-12-23T08:22:38.914Z,999.51
2022-12-23T08:23:38.896Z,999.50
2022-12-23T08:24:38.882Z,999.43
2022-12-23T08:25:38.880Z,999.42
2022-12-23T08:26:38.887Z,999.36
2022-12-23T08:27:38.890Z,999.38
2022-12-23T08:28:38.909Z,999.40
2022-12-23T08:29:38.863Z,999.42
2022-12-23T08:30:38.925Z,999.39
2022-12-23T08:31:38.885Z,999.42
2022-12-23T08:32:38.865Z,999.43
2022-12-23T08:33:38.851Z,999.47
2022-12-23T08:34:38.867Z,999.48
2022-12-23T08:35:38.849Z,999.49
2022-12-23T08:36:38.849Z,999.51
2022-12-23T08:37:38.858Z,999.52
2022-12-23T08:38:38.836Z,999.53
2022-12-23T08:39:38.846Z,999.56
2022-12-23T08:40:38.823Z,999.55
2022-12-23T08:41:38.815Z,999.57
2022-12-23T08:42:38.824Z,999.54
2022-12-23T08:43:38.813Z,999.53
2022-12-23T08:44:38.823Z,999.51
2022-12-23T08:45:38.847Z,999.52
2022-12-23T08:46:38.889Z,999.52
2022-12-23T08:47:38.925Z,999.51
2022-12-23T08:48:42.497Z,999.47
2022-12-23T08:49:38.810Z,999.47
2022-12-23T08:50:38.791Z,999.44
2022-12-23T08:51:38.797Z,999.46
2022-12-23T08:52:38.782Z,999.48
2022-12-23T08:53:38.778Z,999.47
2022-12-23T08:54:38.791Z,999.46
2022-12-23T08:55:38.784Z,999.47
2022-12-23T08:56:38.765Z,999.47
2022-12-23T08:57:38.761Z,999.53
2022-12-23T08:58:38.759Z,999.55
2022-12-23T08:59:38.799Z,999.56
2022-12-23T09:00:38.747Z,999.58
2022-12-23T09:01:38.834Z,999.54
2022-12-23T09:02:38.928Z,999.53
2022-12-23T09:03:38.863Z,999.57
2022-12-23T09:04:38.743Z,999.51
2022-12-23T09:05:38.731Z,999.52
2022-12-23T09:06:38.757Z,999.51
2022-12-23T09:07:38.724Z,999.54
2022-12-23T09:08:38.745Z,999.55
2022-12-23T09:09:38.763Z,999.61
2022-12-23T09:10:38.719Z,999.69
2022-12-23T09:11:38.712Z,999.68
2022-12-23T09:12:38.749Z,999.68
2022-12-23T09:13:38.715Z,999.66
2022-12-23T09:14:38.706Z,999.67
2022-12-23T09:15:38.791Z,999.68
2022-12-23T09:16:38.692Z,999.70
2022-12-23T09:17:38.705Z,999.68
2022-12-23T09:18:38.703Z,999.72
2022-12-23T09:19:38.729Z,999.71
2022-12-23T09:20:38.696Z,999.67
2022-12-23T09:21:38.695Z,999.67
2022-12-23T09:22:38.669Z,999.64
2022-12-23T09:23:38.688Z,999.64
2022-12-23T09:24:38.669Z,999.73
2022-12-23T09:25:38.689Z,999.74
2022-12-23T09:26:38.661Z,999.75
2022-12-23T09:27:38.674Z,999.73
2022-12-23T09:28:38.703Z,999.70
2022-12-23T09:29:38.648Z,999.67
2022-12-23T09:30:38.670Z,999.61
2022-12-23T09:31:38.705Z,999.61
2022-12-23T09:32:38.650Z,999.62
2022-12-23T09:33:38.651Z,999.64
2022-12-23T09:34:38.699Z,999.65
2022-12-23T09:35:38.648Z,999.63
2022-12-23T09:36:38.686Z,999.63
2022-12-23T09:37:38.635Z,999.64
2022-12-23T09:38:38.617Z,999.67
2022-12-23T09:39:38.642Z,999.67
2022-12-23T09:40:38.622Z,999.73
2022-12-23T09:41:38.602Z,999.70
2022-12-23T09:42:38.603Z,999.71
2022-12-23T09:43:38.602Z,999.72
2022-12-23T09:44:38.663Z,999.67
2022-12-23T09:45:40.630Z,999.66
2022-12-23T09:46:38.647Z,999.65
2022-12-23T09:47:38.581Z,999.67
2022-12-23T09:48:38.590Z,999.68
2022-12-23T09:49:38.585Z,999.66
2022-12-23T09:50:38.595Z,999.65
2022-12-23T09:51:38.584Z,999.64
2022-12-23T09:52:38.571Z,999.67
2022-12-23T09:53:38.581Z,999.68
2022-12-23T09:54:38.603Z,999.72
2022-12-23T09:55:38.558Z,999.75
2022-12-23T09:56:38.557Z,999.71
2022-12-23T09:57:38.561Z,999.70
2022-12-23T09:58:38.553Z,999.71
2022-12-23T09:59:38.555Z,999.68
2022-12-23T10:00:38.551Z,999.67
2022-12-23T10:01:44.419Z,999.65
2022-12-23T10:02:38.830Z,999.65
2022-12-23T10:13:54.881Z,999.50
2022-12-23T10:14:54.841Z,999.47
2022-12-23T10:15:54.893Z,999.45
2022-12-23T10:16:54.817Z,999.36
2022-12-23T10:17:54.827Z,999.31
2022-12-23T10:18:54.804Z,999.29
2022-12-23T10:19:54.815Z,999.24
2022-12-23T10:20:54.805Z,999.25
2022-12-23T10:21:54.798Z,999.28
2022-12-23T10:22:54.802Z,999.29
2022-12-23T10:23:54.786Z,999.31
2022-12-23T10:24:54.787Z,999.30
2022-12-23T10:25:54.780Z,999.32
2022-12-23T10:26:54.781Z,999.34
2022-12-23T10:27:54.777Z,999.33
2022-12-23T10:28:54.774Z,999.34
2022-12-23T10:29:54.770Z,999.36
2022-12-23T10:31:23.839Z,999.36
2022-12-23T10:31:54.874Z,999.35
2022-12-23T10:32:54.820Z,999.33
2022-12-23T10:33:54.760Z,999.32
2022-12-23T10:34:54.753Z,999.30
2022-12-23T10:35:54.788Z,999.26
2022-12-23T10:36:54.806Z,999.26
2022-12-23T10:37:54.732Z,999.30
2022-12-23T10:38:54.749Z,999.32
2022-12-23T10:39:54.724Z,999.27
2022-12-23T10:40:54.726Z,999.30
2022-12-23T10:41:54.734Z,999.27
2022-12-23T10:42:54.729Z,999.25
2022-12-23T10:43:54.732Z,999.23
2022-12-23T10:44:54.717Z,999.21
2022-12-23T10:45:54.728Z,999.17
2022-12-23T10:46:54.742Z,999.13
2022-12-23T10:47:54.708Z,999.11
2022-12-23T10:48:54.701Z,999.08
2022-12-23T10:49:54.704Z,999.04
2022-12-23T10:50:54.701Z,999.03
2022-12-23T10:51:54.687Z,999.02
2022-12-23T10:52:54.677Z,999.01
2022-12-23T10:53:54.826Z,999.01
2022-12-23T10:54:54.676Z,999.01
2022-12-23T10:55:54.679Z,998.99
2022-12-23T10:56:54.684Z,998.97
2022-12-23T10:57:54.674Z,999.02
2022-12-23T10:58:54.666Z,999.01
2022-12-23T10:59:54.671Z,999.05
2022-12-23T11:00:54.746Z,999.04
2022-12-23T11:01:54.897Z,999.02
2022-12-23T11:02:54.805Z,999.03
2022-12-23T11:03:54.687Z,998.97
2022-12-23T11:04:54.668Z,998.98
2022-12-23T11:05:54.650Z,999.00
2022-12-23T11:07:18.083Z,999.00
2022-12-23T11:07:54.637Z,999.04
2022-12-23T11:08:54.621Z,999.07
2022-12-23T11:09:54.632Z,999.10
2022-12-23T11:10:54.622Z,999.08
2022-12-23T11:11:54.618Z,999.06
2022-12-23T11:12:54.614Z,999.03
2022-12-23T11:13:54.607Z,998.99
2022-12-23T11:14:54.667Z,998.96
2022-12-23T11:15:54.713Z,998.97
2022-12-23T11:16:54.687Z,998.94
2022-12-23T11:17:54.622Z,998.93
2022-12-23T11:18:54.602Z,998.90
2022-12-23T11:19:54.611Z,998.84
2022-12-23T11:20:54.593Z,998.86
2022-12-23T11:21:54.585Z,998.82
2022-12-23T11:22:54.587Z,998.80
2022-12-23T11:23:54.576Z,998.78
2022-12-23T11:24:54.610Z,998.77
2022-12-23T11:25:54.580Z,998.81
2022-12-23T11:26:54.562Z,998.81
2022-12-23T11:27:54.592Z,998.85
2022-12-23T11:28:54.562Z,998.81
2022-12-23T11:29:54.601Z,998.78
2022-12-23T11:30:56.656Z,998.80
2022-12-23T11:31:54.619Z,998.76
2022-12-23T11:32:54.547Z,998.74
2022-12-23T11:33:54.578Z,998.75
2022-12-23T11:34:54.586Z,998.69
2022-12-23T11:35:54.559Z,998.71
2022-12-23T11:36:56.565Z,998.70
2022-12-23T11:37:54.682Z,998.71
2022-12-23T11:38:54.544Z,998.72
2022-12-23T11:39:54.520Z,998.70
2022-12-23T11:40:54.517Z,998.71
2022-12-23T11:41:54.517Z,998.70
2022-12-23T11:42:55.413Z,998.68
2022-12-23T11:43:54.525Z,998.67
2022-12-23T11:44:54.503Z,998.60
2022-12-23T11:45:54.512Z,998.58
2022-12-23T11:46:54.519Z,998.54
2022-12-23T11:47:54.496Z,998.55
2022-12-23T11:48:54.980Z,998.54
2022-12-23T11:49:54.573Z,998.52
2022-12-23T11:50:54.499Z,998.45
2022-12-23T11:51:54.489Z,998.42
2022-12-23T11:52:54.504Z,998.35
2022-12-23T11:53:54.477Z,998.35
2022-12-23T11:54:54.872Z,998.39
2022-12-23T11:55:54.484Z,998.36
2022-12-23T11:56:54.497Z,998.32
2022-12-23T11:57:54.472Z,998.35
2022-12-23T11:58:54.469Z,998.31
2022-12-23T11:59:54.458Z,998.26
2022-12-23T12:00:56.005Z,998.24
2022-12-23T12:01:54.498Z,998.19
2022-12-23T12:02:54.533Z,998.17
2022-12-23T12:03:54.478Z,998.11
2022-12-23T12:04:54.450Z,998.15
2022-12-23T12:05:54.460Z,998.15
2022-12-23T12:06:56.789Z,998.13
2022-12-23T12:07:54.430Z,998.09
2022-12-23T12:08:54.453Z,998.04
2022-12-23T12:09:54.449Z,998.05
2022-12-23T12:10:54.459Z,998.05
2022-12-23T12:11:54.421Z,998.05
2022-12-23T12:12:55.106Z,998.01
2022-12-23T12:13:54.411Z,998.00
2022-12-23T12:14:54.466Z,997.95
2022-12-23T12:15:54.400Z,997.95
2022-12-23T12:16:54.555Z,997.86
2022-12-23T12:17:54.403Z,997.84
2022-12-23T12:18:55.830Z,997.81
2022-12-23T12:19:54.393Z,997.76
2022-12-23T12:20:54.439Z,997.79
2022-12-23T12:21:54.398Z,997.78
2022-12-23T12:22:54.395Z,997.73
2022-12-23T12:24:14.778Z,997.68
2022-12-23T12:24:54.377Z,997.66
2022-12-23T12:25:54.376Z,997.68
2022-12-23T12:26:54.367Z,997.65
2022-12-23T12:27:54.388Z,997.63
2022-12-23T12:28:54.371Z,997.63
2022-12-23T12:29:54.357Z,997.64
2022-12-23T12:30:54.445Z,997.64
2022-12-23T12:31:54.383Z,997.66
2022-12-23T12:32:54.344Z,997.62
2022-12-23T12:33:54.370Z,997.61
2022-12-23T12:34:54.335Z,997.60
2022-12-23T12:35:57.791Z,997.59
2022-12-23T12:36:54.352Z,997.63
2022-12-23T12:37:54.341Z,997.64
2022-12-23T12:38:54.337Z,997.63
2022-12-23T12:39:54.356Z,997.62
2022-12-23T12:40:54.332Z,997.59
2022-12-23T12:41:57.293Z,997.58
2022-12-23T12:42:54.344Z,997.54
2022-12-23T12:43:54.353Z,997.57
2022-12-23T12:44:54.312Z,997.58
2022-12-23T12:45:54.394Z,997.57
2022-12-23T12:46:54.295Z,997.60
2022-12-23T12:47:57.864Z,997.58
2022-12-23T12:48:54.313Z,997.56
2022-12-23T12:49:54.298Z,997.56
2022-12-23T12:50:54.295Z,997.61
2022-12-23T12:51:54.305Z,997.59
2022-12-23T12:52:54.297Z,997.57
2022-12-23T12:53:56.231Z,997.60
2022-12-23T12:54:54.275Z,997.57
2022-12-23T12:55:54.276Z,997.56
2022-12-23T12:56:54.263Z,997.58
2022-12-23T12:57:54.267Z,997.54
2022-12-23T12:58:54.303Z,997.56
2022-12-23T12:59:57.386Z,997.55
2022-12-23T13:00:54.301Z,997.53
2022-12-23T13:01:54.310Z,997.51
2022-12-23T13:02:54.289Z,997.48
2022-12-23T13:03:54.275Z,997.47
2022-12-23T13:04:54.239Z,997.46
2022-12-23T13:05:54.710Z,997.44
2022-12-23T13:06:54.235Z,997.45
2022-12-23T13:07:54.247Z,997.42
2022-12-23T13:08:54.227Z,997.40
2022-12-23T13:09:54.254Z,997.38
2022-12-23T13:10:54.221Z,997.36
2022-12-23T13:11:54.205Z,997.39
2022-12-23T13:12:54.226Z,997.38
2022-12-23T13:13:54.201Z,997.37
2022-12-23T13:14:54.208Z,997.34
2022-12-23T13:15:54.209Z,997.37
2022-12-23T13:16:54.242Z,997.31
2022-12-23T13:17:57.552Z,997.26
2022-12-23T13:18:54.187Z,997.26
2022-12-23T13:19:54.203Z,997.24
2022-12-23T13:20:54.195Z,997.21
2022-12-23T13:21:54.197Z,997.17
2022-12-23T13:22:54.181Z,997.14
2022-12-23T13:23:58.041Z,997.09
2022-12-23T13:24:54.164Z,997.08
2022-12-23T13:25:54.195Z,997.05
2022-12-23T13:26:54.173Z,997.04
2022-12-23T13:27:54.157Z,997.05
2022-12-23T13:28:54.151Z,997.06
2022-12-23T13:29:57.950Z,997.04
2022-12-23T13:30:54.204Z,997.06
2022-12-23T13:31:54.154Z,997.03
2022-12-23T13:32:54.150Z,997.02
2022-12-23T13:33:54.135Z,997.01
2022-12-23T13:34:54.134Z,996.98
2022-12-23T13:35:57.326Z,996.95
2022-12-23T13:36:54.218Z,996.93
2022-12-23T13:37:54.179Z,996.95
2022-12-23T13:38:54.115Z,996.92
2022-12-23T13:39:54.123Z,996.95
2022-12-23T13:40:54.119Z,996.93
2022-12-23T13:41:57.318Z,996.92
2022-12-23T13:42:54.118Z,996.95
2022-12-23T13:43:54.120Z,996.96
2022-12-23T13:44:54.103Z,996.95
2022-12-23T13:45:54.169Z,996.93
2022-12-23T13:46:54.105Z,996.93
2022-12-23T13:47:57.271Z,996.93
2022-12-23T13:48:54.113Z,996.93
2022-12-23T13:49:54.101Z,996.94
2022-12-23T13:50:54.077Z,996.91
2022-12-23T13:51:54.069Z,996.93
2022-12-23T13:52:54.068Z,996.85
2022-12-23T13:53:56.860Z,996.86
2022-12-23T13:54:54.086Z,996.87
2022-12-23T13:55:54.072Z,996.82
2022-12-23T13:56:54.051Z,996.81
2022-12-23T13:57:54.084Z,996.81
2022-12-23T13:58:54.052Z,996.80
2022-12-23T13:59:54.917Z,996.78
2022-12-23T14:00:54.054Z,996.80
2022-12-23T14:01:54.099Z,996.77
2022-12-23T14:02:54.116Z,996.76
2022-12-23T14:03:54.040Z,996.72
2022-12-23T14:04:54.058Z,996.69
2022-12-23T14:05:54.033Z,996.65
2022-12-23T14:06:54.010Z,996.62
2022-12-23T14:07:54.025Z,996.60
2022-12-23T14:08:54.028Z,996.56
2022-12-23T14:09:54.009Z,996.59
2022-12-23T14:10:54.011Z,996.53
2022-12-23T14:11:54.885Z,996.51
2022-12-23T14:12:54.018Z,996.49
2022-12-23T14:13:54.007Z,996.51
2022-12-23T14:14:53.996Z,996.43
2022-12-23T14:15:54.104Z,996.45
2022-12-23T14:16:54.003Z,996.41
2022-12-23T14:17:55.584Z,996.45
2022-12-23T14:18:53.976Z,996.42
2022-12-23T14:19:53.974Z,996.44
2022-12-23T14:20:53.974Z,996.43
2022-12-23T14:21:53.969Z,996.44
2022-12-23T14:22:53.967Z,996.41
2022-12-23T14:23:54.327Z,996.40
2022-12-23T14:24:53.959Z,996.39
2022-12-23T14:25:53.971Z,996.34
2022-12-23T14:26:53.964Z,996.36
2022-12-23T14:27:53.958Z,996.29
2022-12-23T14:28:53.947Z,996.24
2022-12-23T14:29:57.481Z,996.23
2022-12-23T14:30:53.993Z,996.19
2022-12-23T14:31:54.028Z,996.18
2022-12-23T14:32:53.956Z,996.16
2022-12-23T14:33:53.934Z,996.15
2022-12-23T14:34:53.924Z,996.16
2022-12-23T14:35:53.918Z,996.14
2022-12-23T14:36:53.923Z,996.12
2022-12-23T14:37:53.943Z,996.16
2022-12-23T14:38:53.909Z,996.16
2022-12-23T14:39:53.930Z,996.14
2022-12-23T14:40:53.911Z,996.14
2022-12-23T14:41:53.917Z,996.11
2022-12-23T14:42:53.897Z,996.07
2022-12-23T14:43:53.911Z,996.07
2022-12-23T14:44:53.909Z,995.99
2022-12-23T14:45:53.913Z,996.00
2022-12-23T14:46:54.038Z,995.99
2022-12-23T14:47:53.888Z,995.99
2022-12-23T14:49:15.911Z,995.96
2022-12-23T14:49:53.874Z,995.96
2022-12-23T14:50:53.886Z,995.92
2022-12-23T14:51:53.855Z,995.91
2022-12-23T14:52:53.864Z,995.91
2022-12-23T14:53:53.967Z,995.86
2022-12-23T14:55:20.988Z,995.89
2022-12-23T14:55:53.855Z,995.82
2022-12-23T14:56:53.837Z,995.88
2022-12-23T14:57:53.838Z,995.87
2022-12-23T14:58:53.846Z,995.87
2022-12-23T14:59:53.833Z,995.88
2022-12-23T15:00:53.831Z,995.87
2022-12-23T15:01:53.951Z,995.84
2022-12-23T15:02:53.885Z,995.84
2022-12-23T15:04:00.988Z,995.88
2022-12-23T15:04:53.827Z,995.86
2022-12-23T15:05:53.841Z,995.83
2022-12-23T15:06:53.818Z,995.81
2022-12-23T15:07:53.799Z,995.84
2022-12-23T15:08:53.802Z,995.83
2022-12-23T15:09:58.769Z,995.85
2022-12-23T15:10:53.806Z,995.83
2022-12-23T15:11:53.792Z,995.82
2022-12-23T15:12:53.790Z,995.87
2022-12-23T15:13:53.817Z,995.82
2022-12-23T15:14:53.770Z,995.83
2022-12-23T15:16:00.599Z,995.86
2022-12-23T15:16:53.832Z,995.84
2022-12-23T15:17:53.784Z,995.83
2022-12-23T15:18:53.781Z,995.86
2022-12-23T15:19:53.768Z,995.84
2022-12-23T15:20:53.755Z,995.81
2022-12-23T15:22:00.431Z,995.81
2022-12-23T15:22:53.775Z,995.81
2022-12-23T15:23:53.752Z,995.80
2022-12-23T15:24:53.759Z,995.79
2022-12-23T15:25:53.748Z,995.79
2022-12-23T15:27:24.683Z,995.80
2022-12-23T15:28:00.820Z,995.77
2022-12-23T15:28:53.736Z,995.73
2022-12-23T15:29:53.737Z,995.71
2022-12-23T15:30:53.769Z,995.70
2022-12-23T15:31:53.835Z,995.69
2022-12-23T15:32:53.708Z,995.68
2022-12-23T15:34:03.573Z,995.70
2022-12-23T15:34:53.727Z,995.62
2022-12-23T15:35:53.693Z,995.60
2022-12-23T15:36:53.796Z,995.53
2022-12-23T15:37:53.705Z,995.51
2022-12-23T15:38:53.689Z,995.52
2022-12-23T15:40:00.465Z,995.53
2022-12-23T15:40:53.674Z,995.51
2022-12-23T15:41:53.786Z,995.54
2022-12-23T15:42:53.700Z,995.55
2022-12-23T15:43:53.686Z,995.55
2022-12-23T15:44:53.668Z,995.56
2022-12-23T15:45:53.657Z,995.55
2022-12-23T15:46:53.723Z,995.52
2022-12-23T15:47:53.648Z,995.55
2022-12-23T15:48:53.653Z,995.52
2022-12-23T15:49:53.654Z,995.51
2022-12-23T15:50:53.672Z,995.48
2022-12-23T15:52:13.962Z,995.50
2022-12-23T15:52:53.646Z,995.51
2022-12-23T15:53:53.625Z,995.49
2022-12-23T15:54:53.626Z,995.49
2022-12-23T15:55:53.631Z,995.47
2022-12-23T15:56:53.755Z,995.47
2022-12-23T15:57:53.615Z,995.49
2022-12-23T15:58:53.622Z,995.55
2022-12-23T15:59:53.616Z,995.52
2022-12-23T16:00:53.614Z,995.51
2022-12-23T16:13:08.193Z,995.43
2022-12-23T16:14:08.168Z,995.42
2022-12-23T16:15:08.204Z,995.39
2022-12-23T16:16:08.182Z,995.39
2022-12-23T16:17:08.149Z,995.36
2022-12-23T16:18:08.130Z,995.36
2022-12-23T16:19:08.150Z,995.32
2022-12-23T16:20:08.116Z,995.24
2022-12-23T16:21:08.125Z,995.24
2022-12-23T16:22:08.107Z,995.21
2022-12-23T16:23:08.097Z,995.21
2022-12-23T16:24:08.118Z,995.18
2022-12-23T16:25:08.101Z,995.18
2022-12-23T16:26:08.088Z,995.14
2022-12-23T16:27:08.094Z,995.12
2022-12-23T16:28:08.100Z,995.05
2022-12-23T16:29:08.107Z,995.09
2022-12-23T16:30:08.076Z,995.05
2022-12-23T16:31:08.162Z,994.99
2022-12-23T16:32:08.186Z,994.99
2022-12-23T16:33:08.063Z,995.00
2022-12-23T16:34:08.048Z,995.00
2022-12-23T16:35:08.049Z,994.96
2022-12-23T16:36:08.061Z,994.97
2022-12-23T16:37:08.080Z,994.95
2022-12-23T16:38:08.042Z,994.91
2022-12-23T16:39:08.031Z,994.88
2022-12-23T16:40:08.027Z,994.87
2022-12-23T16:41:08.024Z,994.84
2022-12-23T16:42:08.035Z,994.87
2022-12-23T16:43:08.035Z,994.83
2022-12-23T16:44:08.021Z,994.83
2022-12-23T16:45:08.015Z,994.78
2022-12-23T16:46:08.084Z,994.75
2022-12-23T16:47:08.044Z,994.79
2022-12-23T16:48:07.997Z,994.79
2022-12-23T16:49:07.995Z,994.70